createdAt,value
2023-04-22T00:00:43.111Z,12.00
2023-04-22T00:02:45.921Z,12.00
2023-04-22T00:04:48.807Z,11.90
2023-04-22T00:06:51.594Z,11.90
2023-04-22T00:08:54.229Z,11.90
2023-04-22T00:10:56.924Z,11.90
2023-04-22T00:13:04.927Z,11.80
2023-04-22T00:15:09.292Z,11.80
2023-04-22T00:17:11.656Z,11.80
2023-04-22T00:19:14.137Z,11.70
2023-04-22T00:21:16.818Z,11.70
2023-04-22T00:23:19.359Z,11.60
2023-04-22T00:25:21.827Z,11.60
2023-04-22T00:27:24.362Z,11.70
2023-04-22T00:29:31.771Z,11.70
2023-04-22T00:31:34.412Z,12.20
2023-04-22T00:33:37.390Z,11.40
2023-04-22T00:35:39.853Z,11.40
2023-04-22T00:37:42.417Z,11.40
2023-04-22T00:39:44.916Z,11.40
2023-04-22T00:41:48.313Z,11.40
2023-04-22T00:43:52.657Z,11.40
2023-04-22T00:45:58.259Z,11.30
2023-04-22T00:48:01.809Z,11.30
2023-04-22T00:50:05.718Z,11.20
2023-04-22T00:52:08.299Z,11.20
2023-04-22T00:54:10.870Z,11.10
2023-04-22T00:56:13.804Z,11.10
2023-04-22T00:58:17.822Z,10.80
2023-04-22T01:00:25.283Z,10.20
2023-04-22T01:02:32.208Z,10.60
2023-04-22T01:04:35.615Z,10.50
2023-04-22T01:06:42.113Z,10.50
2023-04-22T01:08:44.723Z,10.50
2023-04-22T01:10:47.695Z,11.30
2023-04-22T01:12:50.265Z,10.30
2023-04-22T01:14:52.817Z,10.30
2023-04-22T01:16:55.989Z,10.30
2023-04-22T01:19:02.070Z,10.00
2023-04-22T01:21:05.250Z,10.30
2023-04-22T01:23:16.483Z,10.10
2023-04-22T01:25:19.237Z,10.10
2023-04-22T01:27:21.931Z,10.30
2023-04-22T01:29:24.667Z,10.00
2023-04-22T01:31:31.213Z,10.10
2023-04-22T01:33:34.263Z,10.10
2023-04-22T01:35:37.390Z,10.10
2023-04-22T01:37:40.230Z,10.10
2023-04-22T01:39:45.857Z,10.10
2023-04-22T01:41:48.773Z,10.10
2023-04-22T01:43:53.152Z,10.00
2023-04-22T01:45:56.398Z,10.00
2023-04-22T01:47:58.917Z,10.00
2023-04-22T01:50:01.529Z,9.90
2023-04-22T01:52:03.987Z,10.10
2023-04-22T01:54:07.069Z,9.90
2023-04-22T01:56:12.207Z,10.90
2023-04-22T01:58:17.428Z,9.90
2023-04-22T02:00:20.433Z,9.90
2023-04-22T02:02:26.713Z,9.90
2023-04-22T02:04:29.254Z,9.90
2023-04-22T02:06:32.555Z,9.80
2023-04-22T02:08:35.256Z,9.80
2023-04-22T02:10:40.343Z,9.70
2023-04-22T02:12:45.736Z,10.40
2023-04-22T02:14:50.104Z,9.60
2023-04-22T02:16:54.538Z,9.20
2023-04-22T02:18:57.151Z,9.60
2023-04-22T02:20:59.927Z,10.60
2023-04-22T02:23:03.142Z,9.50
2023-04-22T02:25:07.051Z,9.10
2023-04-22T02:27:12.560Z,9.50
2023-04-22T02:29:18.152Z,9.60
2023-04-22T02:31:23.808Z,9.50
2023-04-22T02:33:27.356Z,9.50
2023-04-22T02:35:30.812Z,9.50
2023-04-22T02:37:33.324Z,9.50
2023-04-22T02:39:35.793Z,9.50
2023-04-22T02:41:38.335Z,9.50
2023-04-22T02:43:46.415Z,10.10
2023-04-22T02:45:52.178Z,9.50
2023-04-22T02:47:54.965Z,9.40
2023-04-22T02:49:57.577Z,9.40
2023-04-22T02:52:00.845Z,9.30
2023-04-22T02:54:03.429Z,9.30
2023-04-22T02:56:06.971Z,9.20
2023-04-22T02:58:09.486Z,9.20
2023-04-22T03:00:12.648Z,9.20
2023-04-22T03:02:17.973Z,9.10
2023-04-22T03:04:38.263Z,9.00
2023-04-22T03:06:40.785Z,8.90
2023-04-22T03:08:43.669Z,9.90
2023-04-22T03:10:46.488Z,8.90
2023-04-22T03:12:49.274Z,8.90
2023-04-22T03:14:52.314Z,9.90
2023-04-22T03:16:56.430Z,8.80
2023-04-22T03:19:01.938Z,8.60
2023-04-22T03:21:07.912Z,9.60
2023-04-22T03:23:10.722Z,9.00
2023-04-22T03:25:14.213Z,9.90
2023-04-22T03:27:27.358Z,9.80
2023-04-22T03:29:30.525Z,9.40
2023-04-22T03:31:33.324Z,8.70
2023-04-22T03:33:36.819Z,8.50
2023-04-22T03:35:51.329Z,9.70
2023-04-22T03:37:57.205Z,9.20
2023-04-22T03:40:07.529Z,8.60
2023-04-22T03:42:11.520Z,8.60
2023-04-22T03:44:18.001Z,8.50
2023-04-22T03:46:22.017Z,9.10
2023-04-22T03:48:37.578Z,9.50
2023-04-22T03:50:46.145Z,8.50
2023-04-22T03:52:51.741Z,8.40
2023-04-22T03:54:56.882Z,9.00
2023-04-22T03:57:01.728Z,8.40
2023-04-22T03:59:04.871Z,8.30
2023-04-22T04:01:08.805Z,8.30
2023-04-22T04:03:12.518Z,8.90
2023-04-22T04:05:15.931Z,8.60
2023-04-22T04:07:18.656Z,8.20
2023-04-22T04:09:23.803Z,8.10
2023-04-22T04:11:27.332Z,8.40
2023-04-22T04:13:32.630Z,8.00
2023-04-22T04:15:53.870Z,9.00
2023-04-22T04:17:57.030Z,7.90
2023-04-22T04:20:01.168Z,8.10
2023-04-22T04:22:04.633Z,7.80
2023-04-22T04:24:12.014Z,8.60
2023-04-22T04:26:22.337Z,8.90
2023-04-22T04:28:34.540Z,7.80
2023-04-22T04:30:38.576Z,8.30
2023-04-22T04:32:43.216Z,8.70
2023-04-22T04:34:49.172Z,8.60
2023-04-22T04:36:53.204Z,8.60
2023-04-22T04:39:02.076Z,7.70
2023-04-22T04:41:05.313Z,7.70
2023-04-22T04:43:13.056Z,7.70
2023-04-22T04:45:22.900Z,7.70
2023-04-22T04:47:26.243Z,8.30
2023-04-22T04:49:40.232Z,7.70
2023-04-22T04:51:43.939Z,7.80
2023-04-22T04:53:49.508Z,7.00
2023-04-22T04:55:52.454Z,7.90
2023-04-22T04:58:01.191Z,8.90
2023-04-22T05:00:08.355Z,7.90
2023-04-22T05:02:11.538Z,8.00
2023-04-22T05:04:15.664Z,8.10
2023-04-22T05:06:19.775Z,8.50
2023-04-22T05:08:31.863Z,7.70
2023-04-22T05:10:42.642Z,8.40
2023-04-22T05:12:47.990Z,8.40
2023-04-22T05:14:56.608Z,8.50
2023-04-22T05:17:02.457Z,8.50
2023-04-22T05:19:05.545Z,8.50
2023-04-22T05:21:11.678Z,8.60
2023-04-22T05:23:15.681Z,8.70
2023-04-22T05:25:18.953Z,9.30
2023-04-22T05:27:33.792Z,8.80
2023-04-22T05:29:38.616Z,8.80
2023-04-22T05:31:42.498Z,8.80
2023-04-22T05:33:47.825Z,9.30
2023-04-22T05:35:52.637Z,8.90
2023-04-22T05:37:56.094Z,9.00
2023-04-22T05:39:59.847Z,9.00
2023-04-22T05:42:04.967Z,9.30
2023-04-22T05:44:08.101Z,9.10
2023-04-22T05:46:11.840Z,9.20
2023-04-22T05:48:17.008Z,9.30
2023-04-22T05:50:32.407Z,9.70
2023-04-22T05:52:41.506Z,9.50
2023-04-22T05:54:50.141Z,9.50
2023-04-22T05:56:53.472Z,9.60
2023-04-22T05:58:56.346Z,9.70
2023-04-22T06:01:00.184Z,9.70
2023-04-22T06:03:24.046Z,9.80
2023-04-22T06:05:27.327Z,9.80
2023-04-22T06:07:32.825Z,10.20
2023-04-22T06:09:35.553Z,10.00
2023-04-22T06:11:38.099Z,10.00
2023-04-22T06:13:40.837Z,10.00
2023-04-22T06:15:44.227Z,10.00
2023-04-22T06:17:49.550Z,10.00
2023-04-22T06:19:52.336Z,10.40
2023-04-22T06:21:57.529Z,10.10
2023-04-22T06:24:03.832Z,10.20
2023-04-22T06:26:06.460Z,10.80
2023-04-22T06:28:10.767Z,10.50
2023-04-22T06:30:15.154Z,10.90
2023-04-22T06:32:19.675Z,10.30
2023-04-22T06:34:22.827Z,10.00
2023-04-22T06:36:30.838Z,10.40
2023-04-22T06:38:37.116Z,10.50
2023-04-22T06:41:07.942Z,10.60
2023-04-22T06:43:14.415Z,10.60
2023-04-22T06:45:35.293Z,11.00
2023-04-22T06:47:56.622Z,10.80
2023-04-22T06:50:08.293Z,10.80
2023-04-22T06:52:33.216Z,10.90
2023-04-22T06:54:35.931Z,11.00
2023-04-22T06:56:41.773Z,11.00
2023-04-22T06:58:47.507Z,11.10
2023-04-22T07:00:50.114Z,11.20
2023-04-22T07:02:53.002Z,11.80
2023-04-22T07:04:56.173Z,11.30
2023-04-22T07:06:59.994Z,11.30
2023-04-22T07:09:02.832Z,11.40
2023-04-22T07:11:08.784Z,11.40
2023-04-22T07:13:34.442Z,11.50
2023-04-22T07:15:39.402Z,11.60
2023-04-22T07:17:42.049Z,11.60
2023-04-22T07:19:44.579Z,11.70
2023-04-22T07:21:47.141Z,12.20
2023-04-22T07:23:49.747Z,11.80
2023-04-22T07:25:52.518Z,11.90
2023-04-22T07:27:55.111Z,11.90
2023-04-22T07:30:00.299Z,12.00
2023-04-22T07:32:02.922Z,12.00
2023-04-22T07:34:10.778Z,12.10
2023-04-22T07:36:13.242Z,12.20
2023-04-22T07:38:18.799Z,12.30
2023-04-22T07:40:22.669Z,12.30
2023-04-22T07:42:25.268Z,12.40
2023-04-22T07:44:27.936Z,12.40
2023-04-22T07:46:33.019Z,12.50
2023-04-22T07:48:35.894Z,12.60
2023-04-22T07:50:39.001Z,12.70
2023-04-22T07:52:41.653Z,12.70
2023-04-22T07:54:44.218Z,12.80
2023-04-22T07:56:46.726Z,12.80
2023-04-22T07:58:49.200Z,12.90
2023-04-22T08:00:52.025Z,13.00
2023-04-22T08:02:59.709Z,13.00
2023-04-22T08:05:02.356Z,13.30
2023-04-22T08:07:17.174Z,13.20
2023-04-22T08:09:27.554Z,13.20
2023-04-22T08:11:30.888Z,13.30
2023-04-22T08:13:33.576Z,13.50
2023-04-22T08:15:36.300Z,13.60
2023-04-22T08:17:41.662Z,13.70
2023-04-22T08:19:47.113Z,13.80
2023-04-22T08:21:49.658Z,13.90
2023-04-22T08:23:53.936Z,14.00
2023-04-22T08:25:56.424Z,14.30
2023-04-22T08:27:59.067Z,13.90
2023-04-22T08:30:01.621Z,14.50
2023-04-22T08:32:04.301Z,14.20
2023-04-22T08:34:07.200Z,14.30
2023-04-22T08:36:13.016Z,14.50
2023-04-22T08:38:16.389Z,14.50
2023-04-22T08:40:21.035Z,14.60
2023-04-22T08:42:25.372Z,14.70
2023-04-22T08:44:28.955Z,14.90
2023-04-22T08:46:31.678Z,15.20
2023-04-22T08:48:34.353Z,15.20
2023-04-22T08:50:39.803Z,15.50
2023-04-22T08:52:47.838Z,15.70
2023-04-22T08:54:51.473Z,15.90
2023-04-22T08:56:55.576Z,16.00
2023-04-22T08:58:58.800Z,16.40
2023-04-22T09:01:03.029Z,16.20
2023-04-22T09:03:06.845Z,16.30
2023-04-22T09:05:11.406Z,16.40
2023-04-22T09:07:19.814Z,16.50
2023-04-22T09:09:25.383Z,16.60
2023-04-22T09:11:31.723Z,16.80
2023-04-22T09:13:34.979Z,16.80
2023-04-22T09:15:37.541Z,17.00
2023-04-22T09:17:41.655Z,16.90
2023-04-22T09:19:44.065Z,17.20
2023-04-22T09:21:53.675Z,17.30
2023-04-22T09:23:59.717Z,17.40
2023-04-22T09:26:05.358Z,17.60
2023-04-22T09:28:12.458Z,17.80
2023-04-22T09:30:15.386Z,17.90
2023-04-22T09:32:18.052Z,17.90
2023-04-22T09:34:22.462Z,18.00
2023-04-22T09:36:27.536Z,18.10
2023-04-22T09:38:32.165Z,18.20
2023-04-22T09:40:37.609Z,18.40
2023-04-22T09:42:52.320Z,18.60
2023-04-22T09:45:00.585Z,18.80
2023-04-22T09:47:04.542Z,18.90
2023-04-22T09:49:07.025Z,18.90
2023-04-22T09:51:16.080Z,19.00
2023-04-22T09:53:20.267Z,18.90
2023-04-22T09:55:23.556Z,19.10
2023-04-22T09:57:26.074Z,19.20
2023-04-22T09:59:33.623Z,19.20
2023-04-22T10:01:37.371Z,19.30
2023-04-22T10:03:40.105Z,19.30
2023-04-22T10:05:42.877Z,19.30
2023-04-22T10:07:45.444Z,19.30
2023-04-22T10:09:48.395Z,19.30
2023-04-22T10:11:55.107Z,19.30
2023-04-22T10:13:58.101Z,19.20
2023-04-22T10:16:03.816Z,19.20
2023-04-22T10:18:08.906Z,19.10
2023-04-22T10:20:16.226Z,19.10
2023-04-22T10:22:22.064Z,19.10
2023-04-22T10:24:27.361Z,19.10
2023-04-22T10:26:41.550Z,19.30
2023-04-22T10:28:44.808Z,19.40
2023-04-22T10:30:47.434Z,19.60
2023-04-22T10:32:53.838Z,19.80
2023-04-22T10:35:11.285Z,19.90
2023-04-22T10:37:15.011Z,19.90
2023-04-22T10:39:18.428Z,20.00
2023-04-22T10:41:24.483Z,20.10
2023-04-22T10:43:41.581Z,20.10
2023-04-22T10:45:44.429Z,20.20
2023-04-22T10:47:52.636Z,20.40
2023-04-22T10:50:18.763Z,20.20
2023-04-22T10:52:32.479Z,20.40
2023-04-22T10:54:56.441Z,20.40
2023-04-22T10:57:02.318Z,20.40
2023-04-22T10:59:17.127Z,20.50
2023-04-22T11:01:19.800Z,20.60
2023-04-22T11:03:30.717Z,20.70
2023-04-22T11:05:35.786Z,20.80
2023-04-22T11:07:38.532Z,20.80
2023-04-22T11:09:41.649Z,21.00
2023-04-22T11:11:47.027Z,21.10
2023-04-22T11:13:52.102Z,21.10
2023-04-22T11:15:57.225Z,21.20
2023-04-22T11:18:06.893Z,21.20
2023-04-22T11:20:13.843Z,21.20
2023-04-22T11:22:18.972Z,21.30
2023-04-22T11:24:24.476Z,21.30
2023-04-22T11:26:37.752Z,21.30
2023-04-22T11:28:48.543Z,21.40
2023-04-22T11:30:52.040Z,21.40
2023-04-22T11:32:56.464Z,21.50
2023-04-22T11:35:02.561Z,21.50
2023-04-22T11:37:10.434Z,21.40
2023-04-22T11:39:15.330Z,21.40
2023-04-22T11:41:22.273Z,21.40
2023-04-22T11:43:24.964Z,21.60
2023-04-22T11:45:29.104Z,21.80
2023-04-22T11:47:31.715Z,21.90
2023-04-22T11:49:34.322Z,21.80
2023-04-22T11:51:37.741Z,22.00
2023-04-22T11:53:50.770Z,22.20
2023-04-22T11:55:53.714Z,22.20
2023-04-22T11:57:58.489Z,22.20
2023-04-22T12:00:01.713Z,22.30
2023-04-22T12:02:10.265Z,22.40
2023-04-22T12:04:18.020Z,22.80
2023-04-22T12:06:20.710Z,22.60
2023-04-22T12:08:24.976Z,22.60
2023-04-22T12:10:30.920Z,22.60
2023-04-22T12:12:38.489Z,22.80
2023-04-22T12:14:45.334Z,22.70
2023-04-22T12:16:48.084Z,22.80
2023-04-22T12:18:52.068Z,22.80
2023-04-22T12:20:54.622Z,22.80
2023-04-22T12:22:58.591Z,22.70
2023-04-22T12:25:01.266Z,22.50
2023-04-22T12:27:09.180Z,22.20
2023-04-22T12:29:13.921Z,22.10
2023-04-22T12:31:17.132Z,21.90
2023-04-22T12:33:19.654Z,21.80
2023-04-22T12:35:33.020Z,21.60
2023-04-22T12:37:35.872Z,21.50
2023-04-22T12:39:48.889Z,21.40
2023-04-22T12:41:52.317Z,21.20
2023-04-22T12:43:58.594Z,21.00
2023-04-22T12:46:06.875Z,21.00
2023-04-22T12:48:09.928Z,21.20
2023-04-22T12:50:24.765Z,21.30
2023-04-22T12:52:27.664Z,21.50
2023-04-22T12:54:30.351Z,21.40
2023-04-22T12:56:33.039Z,21.40
2023-04-22T12:58:39.809Z,21.40
2023-04-22T13:00:45.119Z,21.10
2023-04-22T13:02:50.033Z,21.20
2023-04-22T13:04:54.980Z,21.20
2023-04-22T13:06:57.776Z,21.00
2023-04-22T13:09:03.730Z,21.10
2023-04-22T13:11:07.139Z,21.10
2023-04-22T13:13:18.339Z,21.10
2023-04-22T13:15:22.416Z,21.10
2023-04-22T13:17:31.122Z,21.10
2023-04-22T13:19:35.790Z,21.10
2023-04-22T13:21:38.424Z,21.20
2023-04-22T13:23:41.173Z,21.20
2023-04-22T13:25:46.972Z,21.20
2023-04-22T13:27:50.307Z,21.20
2023-04-22T13:29:54.051Z,21.20
2023-04-22T13:31:59.318Z,21.10
2023-04-22T13:34:04.624Z,21.10
2023-04-22T13:36:07.944Z,21.10
2023-04-22T13:38:10.696Z,21.10
2023-04-22T13:40:15.096Z,21.00
2023-04-22T13:42:18.669Z,21.00
2023-04-22T13:44:21.299Z,20.80
2023-04-22T13:46:24.314Z,20.70
2023-04-22T13:48:27.878Z,20.60
2023-04-22T13:50:34.740Z,20.40
2023-04-22T13:52:37.400Z,20.30
2023-04-22T13:54:39.974Z,20.20
2023-04-22T13:56:50.309Z,20.90
2023-04-22T13:58:55.051Z,20.00
2023-04-22T14:00:57.711Z,20.00
2023-04-22T14:03:03.690Z,20.00
2023-04-22T14:05:07.756Z,20.00
2023-04-22T14:07:16.029Z,19.90
2023-04-22T14:09:20.037Z,19.80
2023-04-22T14:11:22.809Z,19.80
2023-04-22T14:13:26.036Z,19.80
2023-04-22T14:15:31.000Z,19.70
2023-04-22T14:17:33.564Z,19.60
2023-04-22T14:19:39.625Z,19.60
2023-04-22T14:21:42.541Z,19.70
2023-04-22T14:23:50.512Z,19.50
2023-04-22T14:25:53.056Z,19.40
2023-04-22T14:28:04.616Z,19.30
2023-04-22T14:30:13.015Z,19.30
2023-04-22T14:32:18.122Z,19.20
2023-04-22T14:34:23.961Z,19.10
2023-04-22T14:36:27.872Z,19.00
2023-04-22T14:38:32.436Z,18.80
2023-04-22T14:40:40.967Z,18.60
2023-04-22T14:42:44.477Z,18.40
2023-04-22T14:44:47.048Z,18.20
2023-04-22T14:46:49.711Z,18.30
2023-04-22T14:48:52.785Z,17.80
2023-04-22T14:50:55.434Z,17.60
2023-04-22T14:52:58.141Z,17.50
2023-04-22T14:55:08.811Z,17.40
2023-04-22T14:57:23.869Z,17.30
2023-04-22T14:59:26.748Z,17.20
2023-04-22T15:01:29.402Z,17.10
2023-04-22T15:03:35.450Z,17.00
2023-04-22T15:05:38.398Z,16.90
2023-04-22T15:07:40.831Z,16.90
2023-04-22T15:09:44.922Z,16.80
2023-04-22T15:11:47.650Z,16.70
2023-04-22T15:13:53.997Z,16.70
2023-04-22T15:15:57.500Z,16.60
2023-04-22T15:18:01.896Z,16.50
2023-04-22T15:20:07.150Z,17.00
2023-04-22T15:22:16.994Z,16.30
2023-04-22T15:24:22.706Z,16.30
2023-04-22T15:26:27.717Z,16.30
2023-04-22T15:28:31.391Z,16.20
2023-04-22T15:30:40.550Z,16.90
2023-04-22T15:32:45.662Z,16.10
2023-04-22T15:34:54.475Z,16.10
2023-04-22T15:36:57.125Z,16.10
2023-04-22T15:38:59.786Z,16.00
2023-04-22T15:41:02.389Z,15.90
2023-04-22T15:43:05.927Z,15.80
2023-04-22T15:45:11.985Z,15.70
2023-04-22T15:47:17.849Z,15.70
2023-04-22T15:49:20.578Z,15.60
2023-04-22T15:51:23.105Z,15.60
2023-04-22T15:53:25.729Z,15.60
2023-04-22T15:55:28.274Z,15.50
2023-04-22T15:57:35.214Z,16.20
2023-04-22T15:59:42.329Z,15.40
2023-04-22T16:01:46.287Z,15.50
2023-04-22T16:03:51.702Z,15.40
2023-04-22T16:05:56.009Z,15.30
2023-04-22T16:08:06.551Z,15.30
2023-04-22T16:10:12.354Z,15.20
2023-04-22T16:12:15.160Z,15.10
2023-04-22T16:14:17.833Z,15.60
2023-04-22T16:16:20.649Z,15.90
2023-04-22T16:18:23.212Z,15.00
2023-04-22T16:20:28.704Z,14.90
2023-04-22T16:22:31.236Z,14.80
2023-04-22T16:24:33.868Z,14.70
2023-04-22T16:26:36.554Z,14.70
2023-04-22T16:28:42.310Z,14.60
2023-04-22T16:30:47.424Z,14.70
2023-04-22T16:32:50.859Z,14.50
2023-04-22T16:34:53.603Z,14.50
2023-04-22T16:36:59.009Z,14.30
2023-04-22T16:39:01.854Z,14.20
2023-04-22T16:41:11.964Z,14.20
2023-04-22T16:43:15.314Z,14.00
2023-04-22T16:45:18.161Z,13.90
2023-04-22T16:47:20.800Z,13.80
2023-04-22T16:49:23.542Z,13.80
2023-04-22T16:51:26.120Z,13.70
2023-04-22T16:53:31.274Z,13.70
2023-04-22T16:55:36.324Z,13.60
2023-04-22T16:57:47.843Z,13.60
2023-04-22T16:59:50.335Z,13.60
2023-04-22T17:01:54.005Z,13.50
2023-04-22T17:03:57.385Z,13.60
2023-04-22T17:06:03.094Z,13.50
2023-04-22T17:08:06.085Z,13.50
2023-04-22T17:10:11.554Z,13.50
2023-04-22T17:12:16.362Z,13.50
2023-04-22T17:14:18.874Z,14.10
2023-04-22T17:16:21.688Z,13.40
2023-04-22T17:18:24.326Z,13.30
2023-04-22T17:20:27.022Z,13.30
2023-04-22T17:22:29.745Z,13.40
2023-04-22T17:24:32.437Z,13.40
2023-04-22T17:26:38.123Z,13.40
2023-04-22T17:28:41.134Z,13.20
2023-04-22T17:30:43.958Z,13.40
2023-04-22T17:32:46.788Z,13.30
2023-04-22T17:34:49.543Z,13.40
2023-04-22T17:36:52.288Z,13.30
2023-04-22T17:38:54.754Z,13.30
2023-04-22T17:40:57.402Z,13.20
2023-04-22T17:43:02.573Z,13.20
2023-04-22T17:45:07.285Z,13.10
2023-04-22T17:47:10.093Z,13.00
2023-04-22T17:49:12.788Z,13.00
2023-04-22T17:51:18.540Z,12.90
2023-04-22T17:53:22.218Z,12.80
2023-04-22T17:55:25.009Z,12.70
2023-04-22T17:57:28.592Z,12.60
2023-04-22T17:59:33.772Z,12.40
2023-04-22T18:01:36.531Z,12.50
2023-04-22T18:03:39.516Z,12.20
2023-04-22T18:05:44.762Z,12.10
2023-04-22T18:07:47.438Z,12.20
2023-04-22T18:09:50.052Z,12.00
2023-04-22T18:11:52.649Z,11.80
2023-04-22T18:13:55.408Z,12.60
2023-04-22T18:16:00.684Z,11.60
2023-04-22T18:18:03.164Z,11.60
2023-04-22T18:20:17.670Z,11.50
2023-04-22T18:22:21.318Z,11.40
2023-04-22T18:24:26.960Z,11.30
2023-04-22T18:26:29.652Z,12.10
2023-04-22T18:28:32.193Z,11.10
2023-04-22T18:30:35.051Z,11.00
2023-04-22T18:32:40.572Z,10.90
2023-04-22T18:34:43.335Z,10.90
2023-04-22T18:36:46.437Z,10.80
2023-04-22T18:38:49.170Z,10.70
2023-04-22T18:40:51.889Z,10.70
2023-04-22T18:42:54.585Z,10.80
2023-04-22T18:44:57.118Z,10.70
2023-04-22T18:47:00.561Z,10.70
2023-04-22T18:49:05.994Z,10.70
2023-04-22T18:51:08.680Z,10.60
2023-04-22T18:53:11.574Z,11.50
2023-04-22T18:55:14.196Z,10.90
2023-04-22T18:57:16.641Z,10.50
2023-04-22T18:59:19.238Z,10.50
2023-04-22T19:01:21.906Z,10.80
2023-04-22T19:03:24.758Z,10.80
2023-04-22T19:05:30.059Z,10.40
2023-04-22T19:07:32.726Z,10.30
2023-04-22T19:09:35.544Z,11.20
2023-04-22T19:11:38.616Z,10.40
2023-04-22T19:13:41.138Z,10.40
2023-04-22T19:15:43.810Z,10.40
2023-04-22T19:17:46.781Z,10.40
2023-04-22T19:19:49.472Z,10.30
2023-04-22T19:21:56.200Z,10.00
2023-04-22T19:23:59.041Z,11.30
2023-04-22T19:26:02.152Z,10.30
2023-04-22T19:28:04.721Z,10.30
2023-04-22T19:30:08.431Z,10.30
2023-04-22T19:32:11.837Z,10.60
2023-04-22T19:34:14.656Z,10.30
2023-04-22T19:36:17.149Z,10.20
2023-04-22T19:38:24.233Z,10.20
2023-04-22T19:40:26.807Z,10.20
2023-04-22T19:42:29.465Z,10.10
2023-04-22T19:44:32.213Z,10.10
2023-04-22T19:46:38.441Z,10.10
2023-04-22T19:48:42.461Z,11.30
2023-04-22T19:50:45.849Z,10.10
2023-04-22T19:52:51.093Z,10.10
2023-04-22T19:55:00.405Z,10.10
2023-04-22T19:57:06.721Z,10.10
2023-04-22T19:59:09.523Z,10.10
2023-04-22T20:01:12.502Z,10.10
2023-04-22T20:03:16.300Z,10.10
2023-04-22T20:05:20.439Z,10.10
2023-04-22T20:07:23.621Z,10.10
2023-04-22T20:09:26.981Z,10.10
2023-04-22T20:11:32.861Z,10.10
2023-04-22T20:13:36.116Z,10.10
2023-04-22T20:15:39.431Z,10.10
2023-04-22T20:17:45.099Z,10.10
2023-04-22T20:19:49.960Z,10.10
2023-04-22T20:21:57.784Z,10.10
2023-04-22T20:24:04.200Z,10.00
2023-04-22T20:26:08.641Z,10.10
2023-04-22T20:28:14.251Z,10.00
2023-04-22T20:30:17.429Z,10.00
2023-04-22T20:32:20.128Z,9.90
2023-04-22T20:34:23.150Z,9.90
2023-04-22T20:36:26.688Z,9.90
2023-04-22T20:38:31.104Z,9.90
2023-04-22T20:40:35.896Z,10.40
2023-04-22T20:42:38.487Z,9.90
2023-04-22T20:44:45.963Z,9.90
2023-04-22T20:46:49.009Z,10.10
2023-04-22T20:48:52.723Z,10.00
2023-04-22T20:50:58.501Z,9.90
2023-04-22T20:53:01.482Z,9.90
2023-04-22T20:55:05.069Z,9.90
2023-04-22T20:57:08.486Z,9.90
2023-04-22T20:59:11.041Z,9.90
2023-04-22T21:01:16.888Z,9.90
2023-04-22T21:03:22.810Z,10.00
2023-04-22T21:05:26.383Z,10.50
2023-04-22T21:07:30.954Z,10.00
2023-04-22T21:09:34.005Z,10.00
2023-04-22T21:11:37.380Z,10.00
2023-04-22T21:13:40.823Z,10.00
2023-04-22T21:15:54.060Z,9.20
2023-04-22T21:18:02.825Z,10.00
2023-04-22T21:20:09.437Z,10.00
2023-04-22T21:22:12.725Z,10.00
2023-04-22T21:24:15.928Z,10.00
2023-04-22T21:26:19.359Z,10.00
2023-04-22T21:28:23.062Z,9.90
2023-04-22T21:30:26.495Z,9.90
2023-04-22T21:32:29.745Z,9.90
2023-04-22T21:34:35.231Z,9.90
2023-04-22T21:36:38.672Z,9.90
2023-04-22T21:38:41.489Z,9.80
2023-04-22T21:40:44.473Z,9.90
2023-04-22T21:42:48.886Z,10.10
2023-04-22T21:44:51.905Z,9.90
2023-04-22T21:46:54.413Z,9.80
2023-04-22T21:48:58.644Z,9.80
2023-04-22T21:51:04.332Z,9.80
2023-04-22T21:53:07.075Z,9.80
2023-04-22T21:55:11.604Z,9.80
2023-04-22T21:57:14.284Z,9.80
2023-04-22T21:59:16.859Z,9.80
2023-04-22T22:01:19.459Z,9.80
2023-04-22T22:03:22.239Z,10.40
2023-04-22T22:05:25.691Z,9.80
2023-04-22T22:07:31.020Z,9.80
2023-04-22T22:09:33.918Z,9.80
2023-04-22T22:11:36.474Z,9.80
2023-04-22T22:13:41.950Z,9.70
2023-04-22T22:15:47.242Z,10.20
2023-04-22T22:17:50.917Z,9.60
2023-04-22T22:19:53.450Z,9.70
2023-04-22T22:21:55.934Z,9.70
2023-04-22T22:24:01.064Z,9.70
2023-04-22T22:26:03.716Z,9.60
2023-04-22T22:28:06.309Z,9.70
2023-04-22T22:30:09.815Z,9.70
2023-04-22T22:32:12.627Z,9.70
2023-04-22T22:34:15.183Z,9.70
2023-04-22T22:36:17.957Z,9.70
2023-04-22T22:38:20.770Z,9.70
2023-04-22T22:40:26.341Z,9.90
2023-04-22T22:42:28.875Z,9.60
2023-04-22T22:44:31.686Z,9.60
2023-04-22T22:46:34.294Z,10.00
2023-04-22T22:48:37.115Z,9.40
2023-04-22T22:50:40.733Z,9.60
2023-04-22T22:52:43.245Z,9.60
2023-04-22T22:54:48.402Z,9.60
2023-04-22T22:56:53.683Z,9.60
2023-04-22T22:58:56.392Z,9.60
2023-04-22T23:01:01.136Z,9.50
2023-04-22T23:03:04.417Z,9.50
2023-04-22T23:05:10.784Z,9.60
2023-04-22T23:07:14.867Z,9.50
2023-04-22T23:09:19.266Z,9.40
2023-04-22T23:11:21.786Z,9.40
2023-04-22T23:13:26.927Z,9.40
2023-04-22T23:15:29.591Z,9.30
2023-04-22T23:17:32.110Z,9.30
2023-04-22T23:19:35.621Z,9.40
2023-04-22T23:21:39.955Z,9.30
2023-04-22T23:23:43.552Z,9.20
2023-04-22T23:25:48.009Z,9.20
2023-04-22T23:27:51.592Z,9.10
2023-04-22T23:29:57.646Z,9.10
2023-04-22T23:32:04.444Z,9.10
2023-04-22T23:34:08.049Z,9.00
2023-04-22T23:36:14.097Z,9.00
2023-04-22T23:38:16.665Z,9.00
2023-04-22T23:40:19.409Z,9.00
2023-04-22T23:42:21.970Z,9.00
2023-04-22T23:44:24.456Z,9.00
2023-04-22T23:46:29.643Z,8.90
2023-04-22T23:48:32.310Z,8.90
2023-04-22T23:50:35.173Z,8.90
2023-04-22T23:52:41.443Z,8.90
2023-04-22T23:54:45.439Z,8.90
2023-04-22T23:56:48.773Z,8.90
2023-04-22T23:58:51.857Z,9.20
